createdAt,value
2018-08-24T00:03:37.740Z,24.50
2018-08-24T00:08:40.748Z,24.30
2018-08-24T00:13:43.780Z,24.20
2018-08-24T00:18:46.834Z,23.90
2018-08-24T00:23:49.868Z,24.00
2018-08-24T00:28:52.900Z,23.90
2018-08-24T00:33:55.927Z,23.90
2018-08-24T00:38:58.990Z,23.80
2018-08-24T00:44:02.027Z,23.70
2018-08-24T00:49:05.060Z,23.70
2018-08-24T00:54:08.147Z,23.60
2018-08-24T00:59:11.178Z,23.50
2018-08-24T01:04:17.443Z,23.30
2018-08-24T01:09:20.527Z,23.20
2018-08-24T01:14:23.580Z,23.20
2018-08-24T01:19:26.622Z,23.00
2018-08-24T01:24:31.486Z,23.00
2018-08-24T01:29:36.232Z,23.00
2018-08-24T01:34:39.284Z,22.90
2018-08-24T01:39:42.617Z,22.80
2018-08-24T01:44:45.723Z,22.90
2018-08-24T01:49:48.743Z,22.90
2018-08-24T01:54:51.836Z,22.80
2018-08-24T01:59:54.873Z,22.80
2018-08-24T02:04:57.934Z,22.60
2018-08-24T02:10:00.954Z,22.50
2018-08-24T02:15:03.981Z,22.60
2018-08-24T02:20:12.354Z,22.60
2018-08-24T02:25:15.508Z,22.60
2018-08-24T02:30:18.556Z,22.60
2018-08-24T02:35:21.581Z,22.50
2018-08-24T02:40:24.620Z,22.30
2018-08-24T02:45:27.710Z,22.20
2018-08-24T02:50:30.744Z,22.10
2018-08-24T02:55:34.160Z,22.10
2018-08-24T03:00:37.225Z,22.10
2018-08-24T03:05:40.466Z,21.90
2018-08-24T03:10:43.349Z,21.80
2018-08-24T03:15:46.462Z,21.80
2018-08-24T03:20:49.535Z,21.80
2018-08-24T03:25:52.703Z,21.80
2018-08-24T03:30:55.769Z,21.80
2018-08-24T03:36:00.404Z,21.80
2018-08-24T03:41:03.531Z,21.60
2018-08-24T03:46:06.626Z,21.40
2018-08-24T03:51:09.688Z,21.10
2018-08-24T03:56:12.819Z,21.00
2018-08-24T04:01:15.873Z,21.10
2018-08-24T04:06:18.925Z,21.10
2018-08-24T04:11:21.967Z,20.90
2018-08-24T04:16:25.000Z,20.80
2018-08-24T04:21:28.055Z,20.90
2018-08-24T04:26:31.091Z,21.00
2018-08-24T04:31:34.140Z,21.00
2018-08-24T04:36:37.184Z,21.00
2018-08-24T04:41:40.883Z,21.10
2018-08-24T04:46:43.936Z,21.20
2018-08-24T04:51:46.973Z,21.30
2018-08-24T04:56:50.016Z,21.40
2018-08-24T05:01:53.024Z,21.50
2018-08-24T05:06:56.067Z,21.60
2018-08-24T05:11:59.107Z,21.60
2018-08-24T05:17:02.174Z,21.60
2018-08-24T05:22:05.576Z,21.50
2018-08-24T05:27:08.712Z,21.50
2018-08-24T05:32:11.731Z,21.50
2018-08-24T05:37:14.765Z,21.50
2018-08-24T05:42:17.813Z,21.70
2018-08-24T05:47:20.840Z,21.70
2018-08-24T05:52:23.865Z,21.70
2018-08-24T05:57:26.887Z,21.90
2018-08-24T06:02:29.963Z,22.00
2018-08-24T06:07:32.993Z,21.90
2018-08-24T06:12:36.032Z,22.00
2018-08-24T06:17:44.667Z,22.00
2018-08-24T06:22:47.752Z,21.90
2018-08-24T06:27:50.781Z,21.90
2018-08-24T06:32:53.861Z,22.00
2018-08-24T06:37:56.876Z,22.00
2018-08-24T06:42:59.925Z,21.90
2018-08-24T06:48:03.048Z,21.90
2018-08-24T06:53:06.187Z,21.90
2018-08-24T06:58:09.156Z,22.10
2018-08-24T07:03:12.307Z,22.10
2018-08-24T07:08:15.360Z,22.20
2018-08-24T07:13:18.430Z,22.20
2018-08-24T07:18:21.463Z,22.10
2018-08-24T07:23:24.499Z,22.00
2018-08-24T07:28:27.532Z,22.00
2018-08-24T07:33:30.609Z,22.10
2018-08-24T07:38:33.798Z,22.10
2018-08-24T07:43:36.829Z,22.20
2018-08-24T07:48:39.832Z,22.60
2018-08-24T07:53:42.880Z,22.90
2018-08-24T07:58:45.903Z,22.90
2018-08-24T08:03:48.961Z,22.90
2018-08-24T08:08:51.980Z,22.90
2018-08-24T08:13:55.028Z,22.70
2018-08-24T08:18:58.084Z,22.50
2018-08-24T08:24:01.175Z,22.20
2018-08-24T08:29:04.208Z,22.00
2018-08-24T08:34:07.407Z,22.00
2018-08-24T08:39:12.023Z,22.30
2018-08-24T08:44:15.479Z,22.40
2018-08-24T08:49:18.528Z,22.40
2018-08-24T08:54:21.791Z,22.70
2018-08-24T08:59:25.015Z,22.90
2018-08-24T09:04:28.071Z,23.10
2018-08-24T09:09:31.135Z,23.50
2018-08-24T09:14:34.624Z,23.40
2018-08-24T09:19:44.477Z,23.70
2018-08-24T09:24:52.964Z,23.70
2018-08-24T09:29:57.702Z,24.10
2018-08-24T09:35:00.744Z,24.40
2018-08-24T09:40:04.049Z,24.60
2018-08-24T09:45:07.169Z,24.40
2018-08-24T09:50:15.548Z,23.90
2018-08-24T09:55:18.809Z,24.00
2018-08-24T10:00:24.766Z,24.20
2018-08-24T10:05:33.351Z,24.20
2018-08-24T10:10:36.387Z,23.70
2018-08-24T10:15:39.473Z,23.70
2018-08-24T10:20:42.516Z,23.80
2018-08-24T10:25:45.584Z,23.50
2018-08-24T10:30:48.938Z,23.10
2018-08-24T10:35:51.991Z,22.80
2018-08-24T10:40:55.093Z,22.50
2018-08-24T10:45:59.359Z,22.30
2018-08-24T10:51:02.374Z,22.00
2018-08-24T10:56:05.637Z,22.10
2018-08-24T11:01:08.584Z,21.90
2018-08-24T11:06:11.634Z,21.80
2018-08-24T11:11:14.646Z,21.70
2018-08-24T11:16:17.745Z,21.40
2018-08-24T11:21:20.980Z,21.40
2018-08-24T11:26:24.973Z,21.70
2018-08-24T11:31:28.012Z,21.40
2018-08-24T11:36:31.037Z,21.10
2018-08-24T11:41:35.294Z,21.00
2018-08-24T11:46:38.312Z,20.90
2018-08-24T11:51:41.491Z,21.00
2018-08-24T11:56:44.525Z,20.90
2018-08-24T12:01:47.576Z,21.30
2018-08-24T12:06:50.596Z,21.80
2018-08-24T12:11:53.653Z,22.40
2018-08-24T12:16:56.725Z,22.70
2018-08-24T12:21:59.771Z,22.60
2018-08-24T12:27:02.839Z,22.90
2018-08-24T12:32:06.312Z,23.20
2018-08-24T12:37:11.592Z,23.30
2018-08-24T12:42:14.669Z,23.60
2018-08-24T12:47:17.679Z,23.90
2018-08-24T12:52:20.696Z,24.00
2018-08-24T12:57:27.429Z,23.70
2018-08-24T13:02:30.459Z,23.40
2018-08-24T13:07:33.531Z,23.10
2018-08-24T13:12:36.593Z,22.70
2018-08-24T13:17:39.624Z,22.40
2018-08-24T13:22:42.713Z,22.40
2018-08-24T13:27:51.161Z,22.50
2018-08-24T13:32:54.290Z,22.40
2018-08-24T13:37:57.336Z,22.30
2018-08-24T13:43:00.604Z,22.70
2018-08-24T13:48:03.964Z,23.40
2018-08-24T13:53:07.004Z,23.80
2018-08-24T13:58:10.041Z,24.00
2018-08-24T14:03:13.066Z,24.50
2018-08-24T14:08:16.086Z,24.70
2018-08-24T14:13:19.352Z,24.90
2018-08-24T14:18:22.376Z,24.60
2018-08-24T14:23:25.486Z,24.60
2018-08-24T14:28:28.504Z,24.70
2018-08-24T14:33:31.546Z,24.80
2018-08-24T14:38:34.601Z,25.00
2018-08-24T14:43:37.772Z,25.40
2018-08-24T14:48:41.009Z,25.90
2018-08-24T14:53:44.093Z,25.90
2018-08-24T14:58:47.138Z,26.00
2018-08-24T15:03:50.183Z,25.40
2018-08-24T15:08:53.239Z,25.50
2018-08-24T15:13:56.317Z,25.50
2018-08-24T15:18:59.275Z,25.90
2018-08-24T15:24:02.291Z,25.90
2018-08-24T15:29:05.342Z,25.20
2018-08-24T15:34:08.478Z,24.90
2018-08-24T15:39:12.725Z,24.40
2018-08-24T15:44:15.764Z,23.80
2018-08-24T15:49:18.778Z,23.40
2018-08-24T15:54:21.945Z,23.20
2018-08-24T15:59:25.288Z,23.10
2018-08-24T16:04:28.311Z,22.90
2018-08-24T16:09:31.337Z,22.70
2018-08-24T16:14:34.387Z,22.50
2018-08-24T16:19:37.437Z,22.50
2018-08-24T16:24:40.494Z,22.40
2018-08-24T16:29:43.541Z,22.30
2018-08-24T16:34:46.629Z,22.20
2018-08-24T16:39:49.688Z,22.20
2018-08-24T16:44:52.759Z,22.00
2018-08-24T16:49:55.820Z,22.00
2018-08-24T16:54:58.881Z,21.90
2018-08-24T17:00:01.985Z,21.90
2018-08-24T17:05:05.420Z,22.00
2018-08-24T17:10:09.016Z,21.90
2018-08-24T17:15:12.127Z,21.90
2018-08-24T17:20:15.174Z,21.60
2018-08-24T17:25:18.214Z,21.50
2018-08-24T17:30:21.241Z,21.50
2018-08-24T17:35:24.267Z,21.40
2018-08-24T17:40:27.363Z,21.40
2018-08-24T17:45:30.402Z,21.40
2018-08-24T17:50:33.433Z,21.30
2018-08-24T17:55:36.576Z,21.20
2018-08-24T18:00:39.758Z,21.10
2018-08-24T18:05:42.818Z,21.10
2018-08-24T18:10:45.876Z,21.20
2018-08-24T18:15:49.000Z,21.10
2018-08-24T18:20:52.031Z,21.00
2018-08-24T18:25:55.224Z,20.90
2018-08-24T18:30:58.250Z,20.80
2018-08-24T18:36:01.603Z,20.80
2018-08-24T18:41:04.629Z,20.80
2018-08-24T18:46:07.657Z,20.80
2018-08-24T18:51:10.681Z,20.70
2018-08-24T18:56:13.818Z,20.70
2018-08-24T19:01:16.972Z,20.80
2018-08-24T19:06:20.329Z,20.70
2018-08-24T19:11:29.015Z,20.80
2018-08-24T19:16:32.035Z,20.80
2018-08-24T19:21:41.240Z,20.80
2018-08-24T19:26:44.782Z,20.80
2018-08-24T19:31:47.915Z,20.80
2018-08-24T19:36:51.083Z,20.70
2018-08-24T19:41:59.620Z,20.70
2018-08-24T19:47:02.743Z,20.80
2018-08-24T19:52:06.219Z,20.80
2018-08-24T19:57:14.668Z,20.70
2018-08-24T20:02:17.851Z,20.60
2018-08-24T20:07:26.398Z,20.60
2018-08-24T20:12:29.403Z,20.60
2018-08-24T20:17:32.528Z,20.50
2018-08-24T20:22:35.551Z,20.30
2018-08-24T20:27:38.571Z,20.10
2018-08-24T20:32:41.888Z,20.00
2018-08-24T20:37:44.896Z,19.80
2018-08-24T20:42:47.901Z,19.80
2018-08-24T20:47:50.995Z,19.80
2018-08-24T20:52:54.029Z,19.70
2018-08-24T20:57:57.069Z,19.60
2018-08-24T21:03:00.223Z,19.60
2018-08-24T21:08:03.488Z,19.60
2018-08-24T21:13:06.505Z,19.60
2018-08-24T21:18:09.540Z,19.50
2018-08-24T21:23:12.583Z,19.40
2018-08-24T21:28:15.648Z,19.40
2018-08-24T21:33:18.688Z,19.40
2018-08-24T21:38:21.708Z,19.50
2018-08-24T21:43:24.754Z,19.50
2018-08-24T21:48:27.756Z,19.60
2018-08-24T21:53:30.811Z,19.50
2018-08-24T21:58:33.852Z,19.50
2018-08-24T22:03:36.860Z,19.50
2018-08-24T22:08:39.888Z,19.40
2018-08-24T22:13:42.903Z,19.30
2018-08-24T22:18:45.940Z,19.30
2018-08-24T22:23:48.958Z,19.30
2018-08-24T22:28:51.988Z,19.30
2018-08-24T22:33:55.027Z,19.20
2018-08-24T22:38:58.043Z,19.20
2018-08-24T22:44:01.096Z,19.00
2018-08-24T22:49:04.121Z,19.00
2018-08-24T22:54:07.172Z,19.10
2018-08-24T22:59:10.212Z,19.10
2018-08-24T23:04:13.291Z,19.20
2018-08-24T23:09:16.332Z,19.10
2018-08-24T23:14:19.359Z,19.20
2018-08-24T23:19:22.424Z,19.20
2018-08-24T23:24:25.448Z,19.20
2018-08-24T23:29:28.489Z,19.20
2018-08-24T23:34:31.523Z,19.10
2018-08-24T23:39:34.548Z,19.00
2018-08-24T23:44:37.580Z,19.10
2018-08-24T23:49:40.612Z,19.10
2018-08-24T23:54:43.737Z,19.10
2018-08-24T23:59:46.767Z,19.00
